Time;durP1;ratioP1;P1;durP2;ratioP2;P2;SDS_P1;SDS_P2;PMS_P1;PMS_P2;Temp;Humidity;BMP_temperature;BMP_pressure;BME280_temperature;BME280_humidity;BME280_pressure;Samples;Min_cycle;Max_cycle;Signal;HPM_P1;HPM_P2
2020/12/28 00:00:23;;;;;;;0.30;0.30;;;7.20;99.90;;;;;;5037263;28;20670;-73
2020/12/28 00:02:49;;;;;;;0.30;0.30;;;7.30;99.90;;;;;;5049606;28;20247;-73
2020/12/28 00:05:14;;;;;;;0.30;0.30;;;7.30;99.90;;;;;;5054502;28;20197;-72
2020/12/28 00:07:41;;;;;;;0.30;0.20;;;7.30;99.90;;;;;;5053991;28;20201;-73
2020/12/28 00:10:11;;;;;;;0.38;0.38;;;7.20;99.90;;;;;;5054439;28;20167;-71
2020/12/28 00:12:47;;;;;;;0.30;0.30;;;7.30;99.90;;;;;;5054825;28;20673;-72
2020/12/28 00:15:20;;;;;;;0.30;0.28;;;7.30;99.90;;;;;;5054522;28;20168;-76
2020/12/28 00:17:51;;;;;;;0.30;0.30;;;7.20;99.90;;;;;;5054899;28;20183;-73
2020/12/28 00:20:19;;;;;;;0.30;0.30;;;7.20;99.90;;;;;;5053163;28;20507;-71
2020/12/28 00:22:45;;;;;;;0.30;0.30;;;7.20;99.90;;;;;;5054400;28;20194;-72
2020/12/28 00:25:12;;;;;;;0.30;0.30;;;7.10;99.90;;;;;;5053319;28;20269;-73
2020/12/28 00:27:37;;;;;;;0.30;0.20;;;7.10;99.90;;;;;;5054306;28;20415;-74
2020/12/28 00:30:06;;;;;;;0.30;0.30;;;7.10;99.90;;;;;;5053008;28;20253;-73
2020/12/28 00:32:36;;;;;;;0.30;0.22;;;7.10;99.90;;;;;;5053962;28;20193;-74
2020/12/28 00:35:04;;;;;;;0.30;0.30;;;7.10;99.90;;;;;;5047920;28;20186;-74
2020/12/28 00:37:30;;;;;;;0.30;0.20;;;7.10;99.90;;;;;;5052495;28;20245;-73
2020/12/28 00:39:56;;;;;;;0.30;0.30;;;7.10;99.90;;;;;;5054371;28;20169;-73
2020/12/28 00:42:22;;;;;;;0.30;0.30;;;7.20;99.90;;;;;;5051770;28;20225;-75
2020/12/28 00:44:48;;;;;;;0.30;0.30;;;7.20;99.90;;;;;;5054298;28;20243;-71
2020/12/28 00:47:14;;;;;;;0.30;0.30;;;7.20;99.90;;;;;;5053660;28;20173;-75
2020/12/28 00:49:39;;;;;;;0.30;0.30;;;7.20;99.90;;;;;;5053473;28;20466;-72
2020/12/28 00:52:05;;;;;;;0.30;0.30;;;7.20;99.90;;;;;;5053157;28;20259;-74
2020/12/28 00:54:33;;;;;;;0.30;0.30;;;7.20;99.90;;;;;;5050170;28;20212;-71
2020/12/28 00:56:59;;;;;;;0.30;0.30;;;7.20;99.90;;;;;;5053659;28;20212;-73
2020/12/28 00:59:24;;;;;;;0.30;0.30;;;7.20;99.90;;;;;;5054180;28;20176;-73
2020/12/28 01:01:54;;;;;;;0.30;0.30;;;7.30;99.90;;;;;;5053165;28;20467;-74
2020/12/28 01:04:20;;;;;;;0.30;0.30;;;7.30;99.90;;;;;;5054108;28;20208;-75
2020/12/28 01:06:46;;;;;;;0.30;0.20;;;7.20;99.90;;;;;;5053394;28;20553;-70
2020/12/28 01:09:11;;;;;;;0.30;0.30;;;7.20;99.90;;;;;;5053012;28;20629;-73
2020/12/28 01:11:38;;;;;;;0.30;0.30;;;7.20;99.90;;;;;;5053081;28;20664;-74
2020/12/28 01:14:03;;;;;;;0.30;0.30;;;7.20;99.90;;;;;;5053030;28;20188;-72
2020/12/28 01:16:29;;;;;;;0.30;0.20;;;7.20;99.90;;;;;;5053363;28;20173;-73
2020/12/28 01:18:55;;;;;;;0.30;0.30;;;7.10;99.90;;;;;;5053447;28;20187;-73
2020/12/28 01:21:21;;;;;;;0.30;0.30;;;7.10;99.90;;;;;;5046518;28;20194;-71
2020/12/28 01:23:50;;;;;;;0.30;0.30;;;7.00;99.90;;;;;;5033632;28;20198;-74
2020/12/28 01:26:19;;;;;;;0.30;0.30;;;7.00;99.90;;;;;;5045259;28;20174;-74
2020/12/28 01:28:45;;;;;;;0.30;0.30;;;7.00;99.90;;;;;;5053411;28;20166;-74
2020/12/28 01:31:11;;;;;;;0.30;0.30;;;6.90;99.90;;;;;;5052584;28;20199;-74
2020/12/28 01:33:37;;;;;;;0.30;0.30;;;6.90;99.90;;;;;;5039278;28;20174;-73
2020/12/28 01:36:04;;;;;;;0.30;0.30;;;6.80;99.90;;;;;;5042645;28;20469;-74
2020/12/28 01:38:30;;;;;;;0.30;0.30;;;6.90;99.90;;;;;;5053439;28;20645;-75
2020/12/28 01:40:57;;;;;;;0.30;0.20;;;6.90;99.90;;;;;;5048624;28;20559;-74
2020/12/28 01:43:25;;;;;;;0.30;0.30;;;6.80;99.90;;;;;;5033878;28;20196;-73
2020/12/28 01:45:50;;;;;;;0.30;0.30;;;6.80;99.90;;;;;;5040920;28;21611;-74
2020/12/28 01:48:17;;;;;;;0.30;0.30;;;6.90;99.90;;;;;;5048016;28;20173;-73
2020/12/28 01:50:44;;;;;;;0.30;0.30;;;6.80;99.90;;;;;;5040346;28;20180;-74
2020/12/28 01:53:10;;;;;;;0.30;0.30;;;6.90;99.90;;;;;;5052054;28;20174;-74
2020/12/28 01:55:35;;;;;;;0.30;0.30;;;6.90;99.90;;;;;;5052797;28;20177;-74
2020/12/28 01:58:02;;;;;;;0.40;0.40;;;7.00;99.90;;;;;;5052511;28;20499;-74
2020/12/28 02:00:28;;;;;;;0.30;0.30;;;7.00;99.90;;;;;;5052593;28;20192;-73
2020/12/28 02:02:54;;;;;;;0.30;0.27;;;6.90;99.90;;;;;;5058299;28;20207;-74
2020/12/28 02:05:19;;;;;;;0.30;0.30;;;7.00;99.90;;;;;;5057039;28;20223;-74
2020/12/28 02:07:46;;;;;;;0.30;0.30;;;6.90;99.90;;;;;;5057614;28;20226;-74
2020/12/28 02:10:12;;;;;;;0.30;0.30;;;6.90;99.90;;;;;;5055538;28;20165;-75
2020/12/28 02:12:38;;;;;;;0.30;0.30;;;6.90;99.90;;;;;;5056079;28;20190;-73
2020/12/28 02:15:05;;;;;;;0.30;0.30;;;6.80;99.90;;;;;;5056593;28;20173;-74
2020/12/28 02:17:31;;;;;;;0.30;0.30;;;6.80;99.90;;;;;;5056715;28;20229;-73
2020/12/28 02:19:56;;;;;;;0.30;0.20;;;6.80;99.90;;;;;;5056450;28;20529;-73
2020/12/28 02:22:22;;;;;;;0.30;0.30;;;6.70;99.90;;;;;;5056352;28;20223;-72
2020/12/28 02:24:48;;;;;;;0.30;0.30;;;6.70;99.90;;;;;;5056628;28;20681;-73
2020/12/28 02:27:14;;;;;;;0.30;0.30;;;6.70;99.90;;;;;;5054340;28;20231;-73
2020/12/28 02:29:39;;;;;;;0.40;0.40;;;6.60;99.90;;;;;;5056560;28;20170;-73
2020/12/28 02:32:05;;;;;;;0.30;0.27;;;6.50;99.90;;;;;;5055886;28;20549;-73
2020/12/28 02:34:33;;;;;;;0.30;0.30;;;6.50;99.90;;;;;;5056509;28;20665;-72
2020/12/28 02:36:59;;;;;;;0.30;0.30;;;6.30;99.90;;;;;;5055951;28;20237;-73
2020/12/28 02:39:27;;;;;;;0.30;0.30;;;6.30;99.90;;;;;;5056499;28;20173;-73
2020/12/28 02:41:53;;;;;;;0.30;0.30;;;6.20;99.90;;;;;;5053780;28;20201;-75
2020/12/28 02:44:19;;;;;;;0.40;0.40;;;6.10;99.90;;;;;;5056234;28;20201;-70
2020/12/28 02:46:44;;;;;;;0.30;0.30;;;6.10;99.90;;;;;;5056040;28;20185;-74
2020/12/28 02:49:10;;;;;;;0.30;0.30;;;6.00;99.90;;;;;;5056320;28;20257;-73
2020/12/28 02:51:35;;;;;;;0.30;0.30;;;6.00;99.90;;;;;;5044411;28;20221;-73
2020/12/28 02:54:01;;;;;;;0.30;0.30;;;5.90;99.90;;;;;;5036298;28;20192;-73
2020/12/28 02:56:27;;;;;;;0.30;0.30;;;5.90;99.90;;;;;;5049190;28;20645;-71
2020/12/28 02:58:52;;;;;;;0.30;0.20;;;5.90;99.90;;;;;;5056271;28;20306;-74
2020/12/28 03:01:18;;;;;;;0.30;0.30;;;5.90;99.90;;;;;;5055358;28;20216;-74
2020/12/28 03:03:44;;;;;;;0.30;0.20;;;5.90;99.90;;;;;;5055258;28;20188;-75
2020/12/28 03:06:10;;;;;;;0.30;0.30;;;5.80;99.90;;;;;;5055840;28;20203;-73
2020/12/28 03:08:36;;;;;;;0.35;0.35;;;5.80;99.90;;;;;;5055896;28;20173;-73
2020/12/28 03:11:02;;;;;;;0.30;0.20;;;5.80;99.90;;;;;;5046628;28;20197;-71
2020/12/28 03:13:27;;;;;;;0.30;0.30;;;5.80;99.90;;;;;;5055408;28;20287;-73
2020/12/28 03:15:53;;;;;;;0.40;0.40;;;5.70;99.90;;;;;;5055425;28;20182;-71
2020/12/28 03:18:19;;;;;;;0.47;0.47;;;5.70;99.90;;;;;;5055722;28;20173;-73
2020/12/28 03:20:44;;;;;;;0.40;0.40;;;5.70;99.90;;;;;;5055102;28;20184;-73
2020/12/28 03:23:10;;;;;;;0.40;0.40;;;5.70;99.90;;;;;;5055737;28;20170;-74
2020/12/28 03:25:35;;;;;;;0.30;0.30;;;5.80;99.90;;;;;;5053084;28;20219;-72
2020/12/28 03:28:01;;;;;;;0.30;0.30;;;5.80;99.90;;;;;;5055572;28;20161;-74
2020/12/28 03:30:27;;;;;;;0.30;0.30;;;5.80;99.90;;;;;;5054779;28;20182;-75
2020/12/28 03:32:52;;;;;;;0.40;0.40;;;5.80;99.90;;;;;;5047978;28;20320;-72
2020/12/28 03:35:18;;;;;;;0.30;0.30;;;5.70;99.90;;;;;;5045861;28;20669;-74
2020/12/28 03:37:44;;;;;;;0.30;0.23;;;5.80;99.90;;;;;;5055459;28;20173;-72
2020/12/28 03:40:09;;;;;;;0.30;0.30;;;5.80;99.90;;;;;;5054430;28;20181;-73
2020/12/28 03:42:35;;;;;;;0.30;0.30;;;5.80;99.90;;;;;;5055055;28;20208;-73
2020/12/28 03:45:00;;;;;;;0.30;0.30;;;5.80;99.90;;;;;;5054572;28;20201;-75
2020/12/28 03:47:26;;;;;;;0.40;0.40;;;5.80;99.90;;;;;;5054787;28;20177;-73
2020/12/28 03:49:52;;;;;;;0.30;0.30;;;5.80;99.90;;;;;;5054525;28;20288;-74
2020/12/28 03:52:18;;;;;;;0.30;0.30;;;5.80;99.90;;;;;;5054948;28;20275;-73
2020/12/28 03:54:46;;;;;;;0.30;0.30;;;5.80;99.90;;;;;;5054908;28;20580;-73
2020/12/28 03:57:12;;;;;;;0.30;0.30;;;5.80;99.90;;;;;;5054931;28;20181;-72
2020/12/28 03:59:38;;;;;;;0.30;0.30;;;5.90;99.90;;;;;;5054753;28;20169;-72
2020/12/28 04:02:03;;;;;;;0.30;0.20;;;5.90;99.90;;;;;;5053899;28;20209;-73
2020/12/28 04:04:29;;;;;;;0.40;0.40;;;5.80;99.90;;;;;;5054579;28;20189;-73
2020/12/28 04:06:55;;;;;;;0.30;0.30;;;5.80;99.90;;;;;;5054650;28;20177;-76
2020/12/28 04:09:20;;;;;;;0.30;0.20;;;5.80;99.90;;;;;;5054603;28;20182;-70
2020/12/28 04:11:46;;;;;;;0.40;0.40;;;5.90;99.90;;;;;;5054031;28;20200;-77
2020/12/28 04:14:12;;;;;;;0.40;0.40;;;5.90;99.90;;;;;;5054729;28;20177;-70
2020/12/28 04:16:37;;;;;;;0.30;0.30;;;5.90;99.90;;;;;;5038278;28;20496;-73
2020/12/28 04:19:03;;;;;;;0.30;0.27;;;5.90;99.90;;;;;;5036203;28;20530;-74
2020/12/28 04:21:29;;;;;;;0.30;0.30;;;5.90;99.90;;;;;;5053735;28;20751;-73
2020/12/28 04:23:54;;;;;;;0.30;0.20;;;5.90;99.90;;;;;;5055193;28;20216;-73
2020/12/28 04:26:20;;;;;;;0.30;0.30;;;5.90;99.90;;;;;;5054506;28;20180;-74
2020/12/28 04:28:51;;;;;;;0.30;0.30;;;5.90;99.90;;;;;;5054652;28;20161;-73
2020/12/28 04:31:18;;;;;;;0.30;0.20;;;5.90;99.90;;;;;;5053756;28;20204;-72
2020/12/28 04:33:47;;;;;;;0.30;0.30;;;5.80;99.90;;;;;;5054474;28;20684;-74
2020/12/28 04:36:13;;;;;;;0.30;0.30;;;5.80;99.90;;;;;;5052521;28;20526;-74
2020/12/28 04:38:38;;;;;;;0.30;0.30;;;5.80;99.90;;;;;;5046562;28;20174;-73
2020/12/28 04:41:04;;;;;;;0.30;0.27;;;5.80;99.90;;;;;;5047739;28;20246;-72
2020/12/28 04:43:30;;;;;;;0.30;0.30;;;5.80;99.90;;;;;;5054366;28;20634;-73
2020/12/28 04:46:02;;;;;;;0.30;0.30;;;5.90;99.90;;;;;;5053818;28;20462;-72
2020/12/28 04:48:31;;;;;;;0.30;0.30;;;5.90;99.90;;;;;;5053032;28;20271;-73
2020/12/28 04:50:58;;;;;;;0.30;0.30;;;5.90;99.90;;;;;;5052131;28;20680;-73
2020/12/28 04:53:26;;;;;;;0.30;0.30;;;6.00;99.90;;;;;;5054128;28;20581;-73
2020/12/28 04:55:53;;;;;;;0.30;0.20;;;6.00;99.90;;;;;;5053466;28;20185;-73
2020/12/28 04:58:19;;;;;;;0.30;0.30;;;6.00;99.90;;;;;;5052846;28;20715;-74
2020/12/28 05:00:45;;;;;;;0.30;0.30;;;6.00;99.90;;;;;;5051736;28;20276;-73
2020/12/28 05:03:12;;;;;;;0.30;0.30;;;6.00;99.90;;;;;;5053471;28;20327;-74
2020/12/28 05:05:46;;;;;;;0.30;0.20;;;6.00;99.90;;;;;;5053325;28;20448;-73
2020/12/28 05:08:12;;;;;;;0.30;0.20;;;5.90;99.90;;;;;;5052895;28;20192;-73
2020/12/28 05:10:38;;;;;;;0.30;0.30;;;5.90;99.90;;;;;;5052879;28;20173;-73
2020/12/28 05:13:14;;;;;;;0.30;0.30;;;6.00;99.90;;;;;;5051932;28;20451;-73
2020/12/28 05:15:50;;;;;;;0.40;0.40;;;6.00;99.90;;;;;;5054116;28;20212;-75
2020/12/28 05:18:17;;;;;;;0.30;0.30;;;6.00;99.90;;;;;;5050514;28;20267;-72
2020/12/28 05:20:45;;;;;;;0.30;0.28;;;6.10;99.90;;;;;;5051721;28;20176;-73
2020/12/28 05:23:11;;;;;;;0.30;0.30;;;6.00;99.90;;;;;;5053204;28;20185;-73
2020/12/28 05:25:38;;;;;;;0.30;0.20;;;6.10;99.90;;;;;;5053473;28;20193;-72
2020/12/28 05:28:04;;;;;;;0.30;0.20;;;6.10;99.90;;;;;;5053131;28;20169;-73
2020/12/28 05:30:33;;;;;;;0.30;0.20;;;6.20;99.90;;;;;;5052098;28;20515;-74
2020/12/28 05:33:05;;;;;;;0.30;0.30;;;6.20;99.90;;;;;;5052877;28;20263;-74
2020/12/28 05:35:33;;;;;;;0.30;0.20;;;6.20;99.90;;;;;;5053091;28;20179;-72
2020/12/28 05:38:03;;;;;;;0.30;0.30;;;6.20;99.90;;;;;;5050829;28;20201;-72
2020/12/28 05:40:28;;;;;;;0.30;0.30;;;6.20;99.90;;;;;;5051542;28;20193;-74
2020/12/28 05:42:56;;;;;;;0.30;0.23;;;6.30;99.90;;;;;;5051047;28;20197;-74
2020/12/28 05:45:22;;;;;;;0.30;0.30;;;6.20;99.90;;;;;;5052828;28;20200;-73
2020/12/28 05:47:53;;;;;;;0.30;0.30;;;6.20;99.90;;;;;;5053243;28;20169;-73
2020/12/28 05:50:21;;;;;;;0.30;0.30;;;6.10;99.90;;;;;;5052684;28;20166;-71
2020/12/28 05:52:53;;;;;;;0.30;0.30;;;6.10;99.90;;;;;;5046874;28;20284;-73
2020/12/28 05:55:22;;;;;;;0.40;0.40;;;6.20;99.90;;;;;;5035275;28;20522;-73
2020/12/28 05:57:48;;;;;;;0.30;0.30;;;6.10;99.90;;;;;;5045591;28;20546;-73
2020/12/28 06:00:14;;;;;;;0.30;0.30;;;6.10;99.90;;;;;;5033511;28;20332;-73
2020/12/28 06:02:41;;;;;;;0.30;0.30;;;6.00;99.90;;;;;;5053078;28;20652;-73
2020/12/28 06:05:11;;;;;;;0.57;0.57;;;6.00;99.90;;;;;;5052944;28;20288;-73
2020/12/28 06:07:37;;;;;;;0.30;0.20;;;6.00;99.90;;;;;;5052435;28;20178;-74
2020/12/28 06:10:07;;;;;;;0.30;0.30;;;6.00;99.90;;;;;;5051385;28;20572;-73
2020/12/28 06:12:33;;;;;;;0.30;0.30;;;6.00;99.90;;;;;;5051741;28;20269;-74
2020/12/28 06:14:59;;;;;;;0.30;0.20;;;6.00;99.90;;;;;;5053233;28;20264;-73
2020/12/28 06:17:33;;;;;;;0.30;0.30;;;6.00;99.90;;;;;;5052613;28;20173;-72
2020/12/28 06:20:07;;;;;;;0.30;0.30;;;6.00;99.90;;;;;;5052610;28;20186;-72
2020/12/28 06:22:33;;;;;;;0.30;0.28;;;6.00;99.90;;;;;;5052199;28;20208;-74
2020/12/28 06:25:07;;;;;;;0.30;0.30;;;6.00;99.90;;;;;;5051987;28;20237;-74
2020/12/28 06:27:35;;;;;;;0.30;0.30;;;6.00;99.90;;;;;;5051081;28;20582;-73
2020/12/28 06:30:20;;;;;;;0.30;0.20;;;6.00;99.90;;;;;;5052528;28;20169;-73
2020/12/28 06:32:49;;;;;;;0.30;0.30;;;6.00;99.90;;;;;;5052353;28;20186;-73
2020/12/28 06:35:16;;;;;;;0.30;0.30;;;6.00;99.90;;;;;;5048458;28;20192;-73
2020/12/28 06:37:50;;;;;;;0.40;0.40;;;5.90;99.90;;;;;;5049786;28;20177;-73
2020/12/28 06:40:30;;;;;;;0.30;0.30;;;5.90;99.90;;;;;;5050947;28;20213;-72
2020/12/28 06:43:10;;;;;;;0.30;0.30;;;5.90;99.90;;;;;;5043548;28;20189;-73
2020/12/28 06:45:38;;;;;;;0.30;0.30;;;5.80;99.90;;;;;;5014861;28;20294;-73
2020/12/28 06:48:04;;;;;;;0.30;0.30;;;5.80;99.90;;;;;;5053160;28;20161;-74
2020/12/28 06:50:30;;;;;;;0.30;0.30;;;5.80;99.90;;;;;;5055827;28;20166;-72
2020/12/28 06:52:55;;;;;;;0.30;0.30;;;5.70;99.90;;;;;;5054316;28;20439;-72
2020/12/28 06:55:24;;;;;;;0.30;0.30;;;5.70;99.90;;;;;;5039804;28;20561;-73
2020/12/28 06:57:50;;;;;;;0.30;0.30;;;5.70;99.90;;;;;;5053000;28;20174;-73
2020/12/28 07:00:21;;;;;;;0.30;0.30;;;5.70;99.90;;;;;;5055504;28;20189;-73
2020/12/28 07:02:54;;;;;;;0.30;0.30;;;5.60;99.90;;;;;;5054344;28;20446;-74
2020/12/28 07:05:25;;;;;;;0.30;0.30;;;5.60;99.90;;;;;;5055869;28;20219;-74
2020/12/28 07:07:51;;;;;;;0.30;0.30;;;5.60;99.90;;;;;;5055517;28;20181;-73
2020/12/28 07:10:19;;;;;;;0.30;0.28;;;5.50;99.90;;;;;;5053329;28;20177;-72
2020/12/28 07:12:46;;;;;;;0.30;0.30;;;5.60;99.90;;;;;;5055123;28;20246;-73
2020/12/28 07:15:12;;;;;;;0.30;0.30;;;5.60;99.90;;;;;;5055656;28;20180;-74
2020/12/28 07:17:38;;;;;;;0.30;0.30;;;5.50;99.90;;;;;;5045553;28;20189;-73
2020/12/28 07:20:12;;;;;;;0.30;0.30;;;5.60;99.90;;;;;;5033974;28;20810;-73
2020/12/28 07:22:40;;;;;;;0.30;0.30;;;5.50;99.90;;;;;;5046999;28;20213;-73
2020/12/28 07:25:08;;;;;;;0.30;0.30;;;5.60;99.90;;;;;;5055182;28;20276;-72
2020/12/28 07:27:34;;;;;;;0.30;0.20;;;5.50;99.90;;;;;;5055420;28;20299;-73
2020/12/28 07:30:11;;;;;;;0.30;0.20;;;5.50;99.90;;;;;;5055158;28;20169;-72
2020/12/28 07:32:37;;;;;;;0.30;0.30;;;5.50;99.90;;;;;;5035524;28;20558;-74
2020/12/28 07:35:04;;;;;;;0.30;0.20;;;5.40;99.90;;;;;;5047634;28;20254;-72
2020/12/28 07:37:30;;;;;;;0.30;0.20;;;5.40;99.90;;;;;;5045909;28;20181;-74
2020/12/28 07:39:57;;;;;;;0.30;0.30;;;5.40;99.90;;;;;;5035062;28;20178;-73
2020/12/28 07:42:25;;;;;;;0.30;0.30;;;5.40;99.90;;;;;;5051813;28;20209;-73
2020/12/28 07:44:59;;;;;;;0.30;0.30;;;5.30;99.90;;;;;;5054776;28;20182;-74
2020/12/28 07:47:48;;;;;;;0.30;0.30;;;5.30;99.90;;;;;;5055038;28;20211;-72
2020/12/28 07:50:21;;;;;;;0.30;0.30;;;5.30;99.90;;;;;;5036940;28;20205;-72
2020/12/28 07:53:00;;;;;;;0.30;0.30;;;5.30;99.90;;;;;;5053818;28;20195;-72
2020/12/28 07:55:29;;;;;;;0.30;0.30;;;5.30;99.90;;;;;;5054778;28;20173;-73
2020/12/28 07:57:58;;;;;;;0.30;0.30;;;5.30;99.90;;;;;;5054866;28;20169;-72
2020/12/28 08:00:30;;;;;;;0.30;0.30;;;5.20;99.90;;;;;;5052854;28;20192;-71
2020/12/28 08:02:55;;;;;;;0.30;0.30;;;5.20;99.90;;;;;;5051375;28;20200;-71
2020/12/28 08:05:23;;;;;;;0.30;0.30;;;5.20;99.90;;;;;;5054135;28;20628;-72
2020/12/28 08:07:49;;;;;;;0.35;0.35;;;5.10;99.90;;;;;;5044962;28;20178;-74
2020/12/28 08:10:15;;;;;;;0.30;0.20;;;5.20;99.90;;;;;;5048782;28;20216;-74
2020/12/28 08:12:58;;;;;;;0.85;0.85;;;5.20;99.90;;;;;;5054326;28;20428;-71
2020/12/28 08:15:32;;;;;;;0.30;0.30;;;5.20;99.90;;;;;;5044642;28;20181;-72
2020/12/28 08:18:04;;;;;;;0.30;0.30;;;5.20;99.90;;;;;;5054541;28;20529;-75
2020/12/28 08:20:30;;;;;;;0.30;0.30;;;5.20;99.90;;;;;;5033912;28;20265;-75
2020/12/28 08:22:56;;;;;;;0.30;0.30;;;5.20;99.90;;;;;;5035418;28;20284;-72
2020/12/28 08:25:27;;;;;;;0.30;0.20;;;5.20;99.90;;;;;;5054124;28;20221;-74
2020/12/28 08:27:58;;;;;;;0.40;0.40;;;5.20;99.90;;;;;;5053622;28;20176;-74
2020/12/28 08:30:28;;;;;;;0.30;0.30;;;5.30;99.90;;;;;;5045234;28;20176;-72
2020/12/28 08:32:56;;;;;;;0.30;0.30;;;5.30;99.90;;;;;;5046552;28;20589;-72
2020/12/28 08:35:22;;;;;;;0.30;0.30;;;5.30;99.90;;;;;;5054210;28;20174;-75
2020/12/28 08:37:50;;;;;;;0.30;0.30;;;5.30;99.90;;;;;;5052470;28;20192;-75
2020/12/28 08:40:18;;;;;;;0.30;0.30;;;5.40;99.90;;;;;;5053262;28;20173;-74
2020/12/28 08:42:44;;;;;;;0.30;0.30;;;5.40;99.90;;;;;;5052941;28;20204;-71
2020/12/28 08:45:25;;;;;;;0.30;0.30;;;5.40;99.90;;;;;;5048893;28;20209;-70
2020/12/28 08:47:56;;;;;;;0.40;0.40;;;5.40;99.90;;;;;;5049331;28;20427;-74
2020/12/28 08:50:23;;;;;;;0.30;0.30;;;5.40;99.90;;;;;;5053624;28;20165;-71
2020/12/28 08:52:50;;;;;;;0.30;0.20;;;5.40;99.90;;;;;;5053498;28;20358;-71
2020/12/28 08:55:17;;;;;;;0.30;0.30;;;5.40;99.90;;;;;;5053820;28;20252;-71
2020/12/28 08:57:50;;;;;;;0.30;0.30;;;5.40;99.90;;;;;;5051838;28;20189;-73
2020/12/28 09:00:16;;;;;;;0.30;0.30;;;5.40;99.90;;;;;;5052124;28;20661;-73
2020/12/28 09:02:59;;;;;;;0.30;0.30;;;5.40;99.90;;;;;;5033643;28;20295;-74
2020/12/28 09:05:30;;;;;;;0.30;0.30;;;5.50;99.90;;;;;;5039481;28;20250;-71
2020/12/28 09:08:00;;;;;;;0.30;0.30;;;5.50;99.90;;;;;;5041999;28;20223;-73
2020/12/28 09:10:25;;;;;;;0.40;0.40;;;5.50;99.90;;;;;;5045484;28;20223;-77
2020/12/28 09:12:51;;;;;;;0.30;0.20;;;5.60;99.90;;;;;;5053483;28;20519;-76
2020/12/28 09:15:16;;;;;;;0.30;0.30;;;5.60;99.90;;;;;;5053497;28;20377;-70
2020/12/28 09:17:42;;;;;;;0.50;0.50;;;5.60;99.90;;;;;;5052936;28;20190;-74
2020/12/28 09:20:08;;;;;;;0.30;0.30;;;5.60;99.90;;;;;;5052475;28;20181;-74
2020/12/28 09:22:34;;;;;;;0.33;0.33;;;5.70;99.90;;;;;;5050958;28;20436;-73
2020/12/28 09:25:00;;;;;;;0.30;0.30;;;5.70;99.90;;;;;;5052595;28;20459;-69
2020/12/28 09:27:26;;;;;;;0.30;0.30;;;5.70;99.90;;;;;;5052858;28;20416;-72
2020/12/28 09:29:51;;;;;;;0.30;0.20;;;5.70;99.90;;;;;;5052825;28;20302;-69
2020/12/28 09:32:17;;;;;;;0.30;0.30;;;5.70;99.90;;;;;;5052139;28;20988;-69
2020/12/28 09:34:43;;;;;;;0.30;0.20;;;5.70;99.90;;;;;;5038324;28;20200;-76
2020/12/28 09:37:08;;;;;;;0.30;0.30;;;5.70;99.90;;;;;;5037731;28;20823;-73
2020/12/28 09:39:35;;;;;;;0.33;0.33;;;5.80;99.90;;;;;;5053159;28;20256;-72
2020/12/28 09:42:01;;;;;;;0.30;0.30;;;5.80;99.90;;;;;;5042274;28;20773;-70
2020/12/28 09:44:29;;;;;;;0.30;0.30;;;5.80;99.90;;;;;;5050547;28;20232;-72
2020/12/28 09:46:57;;;;;;;0.30;0.30;;;5.80;99.90;;;;;;5041848;28;20176;-70
2020/12/28 09:49:23;;;;;;;0.30;0.28;;;5.80;99.90;;;;;;5051190;28;20260;-74
2020/12/28 09:51:53;;;;;;;0.30;0.30;;;5.90;99.90;;;;;;5043079;28;20201;-73
2020/12/28 09:54:22;;;;;;;0.30;0.30;;;5.90;99.90;;;;;;5037434;28;20567;-71
2020/12/28 09:56:48;;;;;;;0.30;0.20;;;5.90;99.90;;;;;;5051442;28;20291;-75
2020/12/28 09:59:14;;;;;;;0.30;0.20;;;6.00;99.90;;;;;;5051914;28;20169;-71
2020/12/28 10:01:43;;;;;;;0.30;0.30;;;6.00;99.90;;;;;;5050455;28;20296;-71
2020/12/28 10:04:11;;;;;;;0.30;0.30;;;6.00;99.90;;;;;;5051338;28;20456;-71
2020/12/28 10:06:37;;;;;;;0.30;0.30;;;6.00;99.90;;;;;;5052262;28;20200;-70
2020/12/28 10:09:09;;;;;;;0.30;0.30;;;6.00;99.90;;;;;;5035172;28;20178;-72
2020/12/28 10:11:39;;;;;;;0.30;0.30;;;5.90;99.90;;;;;;5052026;28;20448;-71
2020/12/28 10:14:05;;;;;;;0.30;0.30;;;6.00;99.90;;;;;;5051676;28;20227;-69
2020/12/28 10:16:32;;;;;;;0.40;0.40;;;6.00;99.90;;;;;;5052208;28;20648;-72
2020/12/28 10:18:59;;;;;;;0.30;0.30;;;6.00;99.90;;;;;;5051451;28;20495;-70
2020/12/28 10:21:26;;;;;;;0.30;0.30;;;5.90;99.90;;;;;;5051699;28;20220;-71
2020/12/28 10:23:52;;;;;;;0.40;0.40;;;5.90;99.90;;;;;;5055695;28;20243;-70
2020/12/28 10:26:26;;;;;;;0.30;0.30;;;6.00;99.90;;;;;;5059055;28;20174;-72
2020/12/28 10:28:53;;;;;;;0.30;0.30;;;5.90;99.90;;;;;;5055320;28;20185;-73
2020/12/28 10:31:20;;;;;;;0.30;0.30;;;6.00;99.90;;;;;;5056075;28;20271;-69
2020/12/28 10:33:46;;;;;;;0.30;0.30;;;6.00;99.90;;;;;;5054724;28;20312;-72
2020/12/28 10:36:19;;;;;;;0.32;0.32;;;6.00;99.90;;;;;;5056155;28;20173;-72
2020/12/28 10:38:47;;;;;;;0.30;0.30;;;6.00;99.90;;;;;;5053674;28;20259;-70
2020/12/28 10:41:13;;;;;;;0.30;0.30;;;6.00;99.90;;;;;;5055170;28;20194;-72
2020/12/28 10:43:40;;;;;;;0.30;0.20;;;6.00;99.90;;;;;;5055654;28;20247;-71
2020/12/28 10:46:09;;;;;;;0.90;0.90;;;6.10;99.90;;;;;;5055563;28;20455;-76
2020/12/28 10:48:35;;;;;;;0.30;0.30;;;6.10;99.90;;;;;;5054979;28;20247;-74
2020/12/28 10:51:01;;;;;;;0.30;0.30;;;6.20;99.90;;;;;;5053792;28;20565;-77
2020/12/28 10:53:29;;;;;;;0.35;0.35;;;6.20;99.90;;;;;;5056615;28;20601;-72
2020/12/28 10:55:55;;;;;;;0.40;0.40;;;6.30;99.90;;;;;;5055488;28;20269;-71
2020/12/28 10:58:20;;;;;;;0.30;0.30;;;6.30;99.90;;;;;;5055859;28;20705;-76
2020/12/28 11:00:50;;;;;;;0.30;0.30;;;6.20;99.90;;;;;;5055132;28;20900;-72
2020/12/28 11:03:16;;;;;;;0.30;0.30;;;6.20;99.90;;;;;;5053934;28;20182;-76
2020/12/28 11:05:42;;;;;;;0.30;0.30;;;6.20;99.90;;;;;;5056087;28;20199;-72
2020/12/28 11:08:09;;;;;;;0.40;0.40;;;6.20;99.90;;;;;;5056104;28;20174;-71
2020/12/28 11:10:36;;;;;;;0.30;0.30;;;6.10;99.90;;;;;;5055249;28;20177;-77
2020/12/28 11:13:02;;;;;;;0.30;0.20;;;6.20;99.90;;;;;;5054228;28;20645;-73
2020/12/28 11:15:27;;;;;;;0.30;0.20;;;6.20;99.90;;;;;;5055916;28;20189;-75
2020/12/28 11:17:53;;;;;;;0.30;0.30;;;6.10;99.90;;;;;;5054527;28;20736;-69
2020/12/28 11:20:19;;;;;;;0.30;0.30;;;6.00;99.90;;;;;;5053647;28;20254;-74
2020/12/28 11:22:46;;;;;;;0.50;0.50;;;6.00;99.90;;;;;;5053698;28;20288;-73
2020/12/28 11:25:11;;;;;;;0.30;0.30;;;6.00;99.90;;;;;;5055135;28;20205;-73
2020/12/28 11:27:37;;;;;;;0.30;0.30;;;5.90;99.90;;;;;;5055294;28;20184;-73
2020/12/28 11:30:04;;;;;;;0.50;0.50;;;5.90;99.90;;;;;;5054887;28;20169;-74
2020/12/28 11:32:29;;;;;;;1.20;1.13;;;5.90;99.90;;;;;;5054919;28;20196;-75
2020/12/28 11:34:55;;;;;;;0.30;0.30;;;5.90;99.90;;;;;;5040854;28;20575;-71
2020/12/28 11:37:21;;;;;;;0.30;0.20;;;5.90;99.90;;;;;;5050251;28;20637;-77
2020/12/28 11:39:48;;;;;;;0.30;0.30;;;5.90;99.90;;;;;;5055224;28;20180;-76
2020/12/28 11:42:15;;;;;;;0.30;0.30;;;5.90;99.90;;;;;;5055438;28;20205;-75
2020/12/28 11:44:45;;;;;;;0.30;0.30;;;5.90;99.90;;;;;;5055391;28;20193;-74
2020/12/28 11:47:11;;;;;;;0.30;0.28;;;5.90;99.90;;;;;;5055111;28;20177;-72
2020/12/28 11:49:36;;;;;;;0.30;0.20;;;6.00;99.90;;;;;;5055137;28;20173;-71
2020/12/28 11:52:02;;;;;;;0.40;0.40;;;6.00;99.90;;;;;;5054226;28;20189;-73
2020/12/28 11:54:28;;;;;;;0.30;0.20;;;6.10;99.90;;;;;;5055491;28;20174;-72
2020/12/28 11:56:53;;;;;;;0.50;0.50;;;6.10;99.90;;;;;;5054723;28;20248;-74
2020/12/28 11:59:19;;;;;;;0.30;0.30;;;6.10;99.90;;;;;;5055474;28;20169;-74
2020/12/28 12:01:48;;;;;;;0.30;0.30;;;6.10;99.90;;;;;;5053456;28;20225;-73
2020/12/28 12:04:14;;;;;;;0.30;0.30;;;6.10;99.90;;;;;;5054962;28;20666;-73
2020/12/28 12:06:40;;;;;;;0.30;0.30;;;6.20;99.90;;;;;;5055006;28;20511;-71
2020/12/28 12:09:11;;;;;;;0.30;0.30;;;6.20;99.90;;;;;;5055262;28;20162;-76
2020/12/28 12:11:40;;;;;;;0.30;0.30;;;6.20;99.90;;;;;;5054236;28;20424;-71
2020/12/28 12:14:06;;;;;;;0.93;0.85;;;6.30;99.90;;;;;;5054966;28;20176;-72
2020/12/28 12:16:32;;;;;;;0.30;0.30;;;6.20;99.90;;;;;;5054516;28;20642;-73
2020/12/28 12:18:57;;;;;;;0.40;0.40;;;6.20;99.90;;;;;;5053070;28;20169;-73
2020/12/28 12:21:23;;;;;;;0.30;0.30;;;6.20;99.90;;;;;;5054226;28;20269;-72
2020/12/28 12:23:49;;;;;;;0.40;0.40;;;6.20;99.90;;;;;;5054309;28;20664;-72
2020/12/28 12:26:19;;;;;;;0.30;0.30;;;6.20;99.90;;;;;;5054238;28;20201;-71
2020/12/28 12:28:45;;;;;;;0.30;0.30;;;6.10;99.90;;;;;;5054416;28;20396;-72
2020/12/28 12:31:13;;;;;;;0.30;0.30;;;6.10;99.90;;;;;;5053250;28;20186;-70
2020/12/28 12:33:39;;;;;;;0.40;0.40;;;6.00;99.90;;;;;;5052816;28;20177;-70
2020/12/28 12:36:04;;;;;;;0.30;0.30;;;6.10;99.90;;;;;;5054096;28;20711;-72
2020/12/28 12:38:30;;;;;;;0.30;0.20;;;6.10;99.90;;;;;;5054148;28;20177;-72
2020/12/28 12:40:56;;;;;;;0.30;0.30;;;6.10;99.90;;;;;;5053586;28;20221;-71
2020/12/28 12:43:21;;;;;;;0.90;0.90;;;6.10;99.90;;;;;;5052811;28;20177;-69
2020/12/28 12:45:47;;;;;;;0.30;0.30;;;6.20;99.90;;;;;;5053188;28;20354;-71
2020/12/28 12:48:12;;;;;;;0.70;0.67;;;6.20;99.90;;;;;;5053908;28;20172;-72
2020/12/28 12:50:38;;;;;;;1.07;0.73;;;6.30;99.90;;;;;;5052126;28;20549;-73
2020/12/28 12:53:04;;;;;;;0.30;0.20;;;6.30;99.90;;;;;;5053896;28;20161;-72
2020/12/28 12:55:29;;;;;;;0.30;0.30;;;6.30;99.90;;;;;;5054084;28;20252;-69
2020/12/28 12:57:55;;;;;;;0.30;0.30;;;6.40;99.90;;;;;;5053901;28;20176;-70